Rutland, VT

7:10 PM EDT on May 25, 2017 (GMT -0400)
Tom's north | | Change Station
Active Advisory: Wind Advisory Active Notice: Public Information Statement

Elev 636 ft 43.61 °N, 72.97 °W | Updated 15 seconds ago

Overcast
Overcast
57.4 °F
Feels Like 57.4 °F
N
5.4
Wind Variable Wind from North
Gusts 6.0 mph

Today
High -- | Low -- °F
--% Chance of Precip.
Yesterday
High -- | Low -- °F
Precip. -- in
Pressure 29.70 in
Visibility 10.0 miles
Clouds Scattered Clouds 2600 ft
Mostly Cloudy 3300 ft
Overcast 7500 ft
Dew Point 49 °F
Humidity 73%
Rainfall 0.11 in
Snow Depth Not available.
5:17 AM 8:20 PM
New Moon, 0% visible
METAR KRUT 252256Z AUTO 12014G26KT 10SM -RA SCT026 BKN033 OVC075 12/09 A2964 RMK AO2 PK WND 11029/2233 RAB50 SLP057 P0000 T01170089 $
Pressure 29.70 in
Visibility 10.0 miles
Clouds Scattered Clouds 2600 ft
Mostly Cloudy 3300 ft
Overcast 7500 ft
Dew Point 49 °F
Humidity 73%
Rainfall 0.11 in
Snow Depth Not available.
5:17 AM 8:20 PM
New Moon, 0% visible
METAR KRUT 252256Z AUTO 12014G26KT 10SM -RA SCT026 BKN033 OVC075 12/09 A2964 RMK AO2 PK WND 11029/2233 RAB50 SLP057 P0000 T01170089 $

Get Your Daily Forecast Email!

Thanks for signing up!

Be on the lookout for a verification email in your inbox.

You'll start receiving severe weather alerts in your inbox..

×

10-Day Weather Forecast

Almanac

Astronomy

May. 25, 2017 Rise Set
Actual Time
Civil Twilight
Nautical Twilight
Astronomical Twilight
Moon
Length of Visible Light
Length of Day
Tomorrow will be .
, % of the Moon is Illuminated

Today's Extremes

State Highs State Lows

Community

WunderPhotos

Category 6

Welcome to Category 6. This is the collective home for Weather Underground's featured writeups by Dr. Jeff Masters (right), Bob Henson (left), Chris Burt, and other regular contributors.

Nearby

Air Quality

  Air Quality AQ Index Pollutant
Not available.

Snow Depth

Station Depth Elevation

Earthquake Activity

City Distance Mag. Time & Date
Minimum magnitude displayed is 2.5.

Coastal Water Temperatures

Place Temperature

Stations

Nearby Weather Stations

Station Location Temp. Windchill Dew Point Humidity Wind Precip. Elev Updated Type
                   

Watches & Warnings

Wind Advisory
Issued: 4:05 PM EDT May. 25, 2017 – National Weather Service

... Wind Advisory remains in effect until midnight EDT tonight...

The National Weather Service in Burlington continues the the Wind
Advisory, until midnight EDT tonight.

* Locations... eastern Chittenden, eastern Addison and Rutland
counties in Vermont.

* Hazards... strong gusty winds.

* Winds... east 20 to 30 mph with gusts up to 50 mph.

* Timing... strongest winds will occur through 8 PM today.

* Impacts... isolated power outages and downed trees are possible.

Precautionary/preparedness actions...

Please stay tuned to NOAA Weather Radio, your local media, or go
to www.Weather.Gov/Burlington for further updates on this weather
situation.



Neiles